CheckWX is a tool to help pilots better visualize weather data.  It is not intended as a substitute for an official pre-flight weather briefing.

20:34:57 UTC

KSAC METAR
Sacramento Executive Airport
Sacramento, California, USA
Current

42 mins ago

KSAC 201953Z 21011G21KT 10SM CLR 19/12 A2987 RMK AO2 SLP115 T01940122
Observed
Apr-20 @ 19:53 UTC
Wind
  • 210° at 11 KTS
  • Gusting to 21 KTS
Visibility
10 SM
Flight Rules
VFR
Cloud Levels
  • Clear skies
Temperature
19°C / 66°F
Dewpoint
12°C / 54°F
Humidity
64%
Altimeter
29.87" Hg
Pressure
1011.52 hPa
Previous

2 hours ago

KSAC 201853Z 19007G18KT 140V210 10SM CLR 19/12 A2989 RMK AO2 SLP119 T01890122
Observed
Apr-20 @ 18:53 UTC
Wind
  • 190° at 7 KTS
  • Gusting to 18 KTS
Visibility
10 SM
Flight Rules
VFR
Cloud Levels
  • Clear skies
Temperature
19°C / 66°F
Dewpoint
12°C / 54°F
Humidity
64%
Altimeter
29.89" Hg
Pressure
1012.22 hPa
Previous

2 hours ago

KSAC 201817Z 18009G19KT 10SM SCT021 18/12 A2989 RMK AO2 T01780117
Observed
Apr-20 @ 18:17 UTC
Wind
  • 180° at 9 KTS
  • Gusting to 19 KTS
Visibility
10 SM
Flight Rules
VFR
Cloud Levels
  • Scattered at 2,100' AGL
Temperature
18°C / 64°F
Dewpoint
12°C / 54°F
Humidity
68%
Altimeter
29.89" Hg
Pressure
1012.22 hPa